sensor_id;sensor_type;location;lat;lon;timestamp;temperature;humidity
46283;DHT22;32017;43.700;11.820;2023-07-31T00:00:22;18.20;99.90
46283;DHT22;32017;43.700;11.820;2023-07-31T00:02:42;18.00;99.90
46283;DHT22;32017;43.700;11.820;2023-07-31T00:05:03;18.00;99.90
46283;DHT22;32017;43.700;11.820;2023-07-31T00:07:23;18.00;99.90
46283;DHT22;32017;43.700;11.820;2023-07-31T00:09:43;18.00;99.90
46283;DHT22;32017;43.700;11.820;2023-07-31T00:12:04;17.80;99.90
46283;DHT22;32017;43.700;11.820;2023-07-31T00:14:23;17.70;99.90
46283;DHT22;32017;43.700;11.820;2023-07-31T00:16:44;18.00;99.90
46283;DHT22;32017;43.700;11.820;2023-07-31T00:19:04;18.20;99.90
46283;DHT22;32017;43.700;11.820;2023-07-31T00:21:23;18.30;99.90
46283;DHT22;32017;43.700;11.820;2023-07-31T00:23:43;18.30;99.90
46283;DHT22;32017;43.700;11.820;2023-07-31T00:26:03;18.20;99.90
46283;DHT22;32017;43.700;11.820;2023-07-31T00:28:23;18.10;99.90
46283;DHT22;32017;43.700;11.820;2023-07-31T00:30:43;18.00;99.90
46283;DHT22;32017;43.700;11.820;2023-07-31T00:33:03;18.10;99.90
46283;DHT22;32017;43.700;11.820;2023-07-31T00:35:23;18.10;99.90
46283;DHT22;32017;43.700;11.820;2023-07-31T00:37:43;18.20;99.90
46283;DHT22;32017;43.700;11.820;2023-07-31T00:40:03;18.20;99.90
46283;DHT22;32017;43.700;11.820;2023-07-31T00:42:23;18.20;99.90
46283;DHT22;32017;43.700;11.820;2023-07-31T00:44:43;18.20;99.90
46283;DHT22;32017;43.700;11.820;2023-07-31T00:47:04;18.20;99.90
46283;DHT22;32017;43.700;11.820;2023-07-31T00:49:23;18.00;99.90
46283;DHT22;32017;43.700;11.820;2023-07-31T00:51:44;17.80;99.90
46283;DHT22;32017;43.700;11.820;2023-07-31T00:54:04;17.80;99.90
46283;DHT22;32017;43.700;11.820;2023-07-31T00:56:24;17.40;99.90
46283;DHT22;32017;43.700;11.820;2023-07-31T00:58:45;17.10;99.90
46283;DHT22;32017;43.700;11.820;2023-07-31T01:01:04;17.00;99.90
46283;DHT22;32017;43.700;11.820;2023-07-31T01:03:24;17.10;99.90
46283;DHT22;32017;43.700;11.820;2023-07-31T01:06:16;17.40;99.90
46283;DHT22;32017;43.700;11.820;2023-07-31T01:08:41;17.40;99.90
46283;DHT22;32017;43.700;11.820;2023-07-31T01:11:17;17.30;99.90
46283;DHT22;32017;43.700;11.820;2023-07-31T01:13:39;17.20;99.90
46283;DHT22;32017;43.700;11.820;2023-07-31T01:15:59;17.10;99.90
46283;DHT22;32017;43.700;11.820;2023-07-31T01:18:19;17.00;99.90
46283;DHT22;32017;43.700;11.820;2023-07-31T01:20:41;17.10;99.90
46283;DHT22;32017;43.700;11.820;2023-07-31T01:23:28;17.10;99.90
46283;DHT22;32017;43.700;11.820;2023-07-31T01:31:05;16.90;99.90
46283;DHT22;32017;43.700;11.820;2023-07-31T01:33:27;16.80;99.90
46283;DHT22;32017;43.700;11.820;2023-07-31T01:35:49;16.90;99.90
46283;DHT22;32017;43.700;11.820;2023-07-31T01:38:09;16.80;99.90
46283;DHT22;32017;43.700;11.820;2023-07-31T01:40:29;16.80;99.90
46283;DHT22;32017;43.700;11.820;2023-07-31T01:42:49;17.00;99.90
46283;DHT22;32017;43.700;11.820;2023-07-31T01:45:10;17.10;99.90
46283;DHT22;32017;43.700;11.820;2023-07-31T01:47:30;17.10;99.90
46283;DHT22;32017;43.700;11.820;2023-07-31T01:49:50;17.10;99.90
46283;DHT22;32017;43.700;11.820;2023-07-31T01:52:10;17.00;99.90
46283;DHT22;32017;43.700;11.820;2023-07-31T01:54:30;17.00;99.90
46283;DHT22;32017;43.700;11.820;2023-07-31T01:56:50;17.00;99.90
46283;DHT22;32017;43.700;11.820;2023-07-31T01:59:10;17.20;99.90
46283;DHT22;32017;43.700;11.820;2023-07-31T02:01:30;17.00;99.90
46283;DHT22;32017;43.700;11.820;2023-07-31T02:03:50;16.80;99.90
46283;DHT22;32017;43.700;11.820;2023-07-31T02:06:11;17.00;99.90
46283;DHT22;32017;43.700;11.820;2023-07-31T02:08:30;16.90;99.90
46283;DHT22;32017;43.700;11.820;2023-07-31T02:10:51;16.80;99.90
46283;DHT22;32017;43.700;11.820;2023-07-31T02:13:11;16.80;99.90
46283;DHT22;32017;43.700;11.820;2023-07-31T02:15:32;16.70;99.90
46283;DHT22;32017;43.700;11.820;2023-07-31T02:17:52;16.60;99.90
46283;DHT22;32017;43.700;11.820;2023-07-31T02:20:12;16.80;99.90
46283;DHT22;32017;43.700;11.820;2023-07-31T02:22:32;16.60;99.90
46283;DHT22;32017;43.700;11.820;2023-07-31T02:24:51;16.70;99.90
46283;DHT22;32017;43.700;11.820;2023-07-31T02:27:11;16.60;99.90
46283;DHT22;32017;43.700;11.820;2023-07-31T02:29:31;16.70;99.90
46283;DHT22;32017;43.700;11.820;2023-07-31T02:31:52;16.60;99.90
46283;DHT22;32017;43.700;11.820;2023-07-31T02:34:12;16.60;99.90
46283;DHT22;32017;43.700;11.820;2023-07-31T02:36:32;16.60;99.90
46283;DHT22;32017;43.700;11.820;2023-07-31T02:38:52;16.50;99.90
46283;DHT22;32017;43.700;11.820;2023-07-31T02:41:12;16.40;99.90
46283;DHT22;32017;43.700;11.820;2023-07-31T02:43:32;16.40;99.90
46283;DHT22;32017;43.700;11.820;2023-07-31T02:45:52;16.50;99.90
46283;DHT22;32017;43.700;11.820;2023-07-31T02:48:13;16.50;99.90
46283;DHT22;32017;43.700;11.820;2023-07-31T02:50:33;16.50;99.90
46283;DHT22;32017;43.700;11.820;2023-07-31T02:52:53;16.40;99.90
46283;DHT22;32017;43.700;11.820;2023-07-31T02:55:13;16.40;99.90
46283;DHT22;32017;43.700;11.820;2023-07-31T02:57:33;16.30;99.90
46283;DHT22;32017;43.700;11.820;2023-07-31T02:59:53;16.10;99.90
46283;DHT22;32017;43.700;11.820;2023-07-31T03:02:13;16.20;99.90
46283;DHT22;32017;43.700;11.820;2023-07-31T03:04:33;16.40;99.90
46283;DHT22;32017;43.700;11.820;2023-07-31T03:06:53;16.20;99.90
46283;DHT22;32017;43.700;11.820;2023-07-31T03:09:13;16.00;99.90
46283;DHT22;32017;43.700;11.820;2023-07-31T03:11:32;16.10;99.90
46283;DHT22;32017;43.700;11.820;2023-07-31T03:13:53;15.90;99.90
46283;DHT22;32017;43.700;11.820;2023-07-31T03:16:13;16.00;99.90
46283;DHT22;32017;43.700;11.820;2023-07-31T03:18:33;15.90;99.90
46283;DHT22;32017;43.700;11.820;2023-07-31T03:20:53;16.10;99.90
46283;DHT22;32017;43.700;11.820;2023-07-31T03:23:13;16.00;99.90
46283;DHT22;32017;43.700;11.820;2023-07-31T03:25:32;16.00;99.90
46283;DHT22;32017;43.700;11.820;2023-07-31T03:27:52;15.90;99.90
46283;DHT22;32017;43.700;11.820;2023-07-31T03:30:12;15.80;99.90
46283;DHT22;32017;43.700;11.820;2023-07-31T03:32:32;15.80;99.90
46283;DHT22;32017;43.700;11.820;2023-07-31T03:34:52;15.90;99.90
46283;DHT22;32017;43.700;11.820;2023-07-31T03:37:12;16.00;99.90
46283;DHT22;32017;43.700;11.820;2023-07-31T03:39:32;16.00;99.90
46283;DHT22;32017;43.700;11.820;2023-07-31T03:41:52;16.00;99.90
46283;DHT22;32017;43.700;11.820;2023-07-31T03:44:12;16.00;99.90
46283;DHT22;32017;43.700;11.820;2023-07-31T03:46:33;16.00;99.90
46283;DHT22;32017;43.700;11.820;2023-07-31T03:48:53;15.90;99.90
46283;DHT22;32017;43.700;11.820;2023-07-31T03:51:13;15.80;99.90
46283;DHT22;32017;43.700;11.820;2023-07-31T03:53:33;15.70;99.90
46283;DHT22;32017;43.700;11.820;2023-07-31T03:55:53;15.80;99.90
46283;DHT22;32017;43.700;11.820;2023-07-31T03:58:12;15.90;99.90
46283;DHT22;32017;43.700;11.820;2023-07-31T04:00:32;15.60;99.90
46283;DHT22;32017;43.700;11.820;2023-07-31T04:02:52;15.60;99.90
46283;DHT22;32017;43.700;11.820;2023-07-31T04:05:12;15.60;99.90
46283;DHT22;32017;43.700;11.820;2023-07-31T04:07:32;15.50;99.90
46283;DHT22;32017;43.700;11.820;2023-07-31T04:09:52;15.60;99.90
46283;DHT22;32017;43.700;11.820;2023-07-31T04:12:12;15.40;99.90
46283;DHT22;32017;43.700;11.820;2023-07-31T04:14:32;15.40;99.90
46283;DHT22;32017;43.700;11.820;2023-07-31T04:16:52;15.30;99.90
46283;DHT22;32017;43.700;11.820;2023-07-31T04:19:12;15.30;99.90
46283;DHT22;32017;43.700;11.820;2023-07-31T04:21:36;15.30;99.90
46283;DHT22;32017;43.700;11.820;2023-07-31T04:23:55;15.30;99.90
46283;DHT22;32017;43.700;11.820;2023-07-31T04:26:15;15.30;99.90
46283;DHT22;32017;43.700;11.820;2023-07-31T04:28:35;15.40;99.90
46283;DHT22;32017;43.700;11.820;2023-07-31T04:30:55;15.40;99.90
46283;DHT22;32017;43.700;11.820;2023-07-31T04:33:15;15.50;99.90
46283;DHT22;32017;43.700;11.820;2023-07-31T04:35:36;15.60;99.90
46283;DHT22;32017;43.700;11.820;2023-07-31T04:37:56;15.70;99.90
46283;DHT22;32017;43.700;11.820;2023-07-31T04:40:16;15.70;99.90
46283;DHT22;32017;43.700;11.820;2023-07-31T04:42:36;15.60;99.90
46283;DHT22;32017;43.700;11.820;2023-07-31T04:44:56;15.50;99.90
46283;DHT22;32017;43.700;11.820;2023-07-31T04:47:16;15.60;99.90
46283;DHT22;32017;43.700;11.820;2023-07-31T04:49:36;15.50;99.90
46283;DHT22;32017;43.700;11.820;2023-07-31T04:51:55;15.50;99.90
46283;DHT22;32017;43.700;11.820;2023-07-31T04:54:16;15.60;99.90
46283;DHT22;32017;43.700;11.820;2023-07-31T04:56:35;15.50;99.90
46283;DHT22;32017;43.700;11.820;2023-07-31T04:58:56;15.50;99.90
46283;DHT22;32017;43.700;11.820;2023-07-31T05:01:16;15.60;99.90
46283;DHT22;32017;43.700;11.820;2023-07-31T05:03:35;15.60;99.90
46283;DHT22;32017;43.700;11.820;2023-07-31T05:05:55;15.70;99.90
46283;DHT22;32017;43.700;11.820;2023-07-31T05:08:16;15.70;99.90
46283;DHT22;32017;43.700;11.820;2023-07-31T05:10:36;15.80;99.90
46283;DHT22;32017;43.700;11.820;2023-07-31T05:12:57;15.80;99.90
46283;DHT22;32017;43.700;11.820;2023-07-31T05:15:16;15.80;99.90
46283;DHT22;32017;43.700;11.820;2023-07-31T05:17:36;15.70;99.90
46283;DHT22;32017;43.700;11.820;2023-07-31T05:19:56;15.60;99.90
46283;DHT22;32017;43.700;11.820;2023-07-31T05:22:16;15.70;99.90
46283;DHT22;32017;43.700;11.820;2023-07-31T05:24:36;15.90;99.90
46283;DHT22;32017;43.700;11.820;2023-07-31T05:26:56;16.10;99.90
46283;DHT22;32017;43.700;11.820;2023-07-31T05:29:16;16.10;99.90
46283;DHT22;32017;43.700;11.820;2023-07-31T05:31:36;16.30;99.90
46283;DHT22;32017;43.700;11.820;2023-07-31T05:33:57;16.40;99.90
46283;DHT22;32017;43.700;11.820;2023-07-31T05:36:18;16.50;99.90
46283;DHT22;32017;43.700;11.820;2023-07-31T05:38:38;16.70;99.90
46283;DHT22;32017;43.700;11.820;2023-07-31T05:41:01;16.80;99.90
46283;DHT22;32017;43.700;11.820;2023-07-31T05:43:21;16.70;99.90
46283;DHT22;32017;43.700;11.820;2023-07-31T05:45:44;16.80;99.90
46283;DHT22;32017;43.700;11.820;2023-07-31T05:48:04;16.90;99.90
46283;DHT22;32017;43.700;11.820;2023-07-31T05:50:24;17.00;99.90
46283;DHT22;32017;43.700;11.820;2023-07-31T05:52:44;17.20;99.90
46283;DHT22;32017;43.700;11.820;2023-07-31T05:55:04;17.40;99.90
46283;DHT22;32017;43.700;11.820;2023-07-31T05:57:24;17.50;99.90
46283;DHT22;32017;43.700;11.820;2023-07-31T05:59:44;17.70;99.90
46283;DHT22;32017;43.700;11.820;2023-07-31T06:02:04;17.70;99.90
46283;DHT22;32017;43.700;11.820;2023-07-31T06:04:24;17.80;99.90
46283;DHT22;32017;43.700;11.820;2023-07-31T06:06:44;17.80;99.90
46283;DHT22;32017;43.700;11.820;2023-07-31T06:09:05;17.90;99.90
46283;DHT22;32017;43.700;11.820;2023-07-31T06:11:25;18.10;99.90
46283;DHT22;32017;43.700;11.820;2023-07-31T06:13:45;18.20;99.90
46283;DHT22;32017;43.700;11.820;2023-07-31T06:16:06;18.30;99.90
46283;DHT22;32017;43.700;11.820;2023-07-31T06:18:26;18.20;99.90
46283;DHT22;32017;43.700;11.820;2023-07-31T06:20:46;18.20;99.90
46283;DHT22;32017;43.700;11.820;2023-07-31T06:23:07;18.40;99.90
46283;DHT22;32017;43.700;11.820;2023-07-31T06:25:27;18.50;99.90
46283;DHT22;32017;43.700;11.820;2023-07-31T06:27:46;18.60;99.90
46283;DHT22;32017;43.700;11.820;2023-07-31T06:30:06;18.80;99.90
46283;DHT22;32017;43.700;11.820;2023-07-31T06:32:26;19.00;99.90
46283;DHT22;32017;43.700;11.820;2023-07-31T06:34:47;19.10;99.90
46283;DHT22;32017;43.700;11.820;2023-07-31T06:37:06;19.00;99.90
46283;DHT22;32017;43.700;11.820;2023-07-31T06:39:26;19.10;99.90
46283;DHT22;32017;43.700;11.820;2023-07-31T06:41:45;19.20;99.90
46283;DHT22;32017;43.700;11.820;2023-07-31T06:44:06;19.40;99.90
46283;DHT22;32017;43.700;11.820;2023-07-31T06:46:26;19.80;99.90
46283;DHT22;32017;43.700;11.820;2023-07-31T06:48:46;20.00;99.90
46283;DHT22;32017;43.700;11.820;2023-07-31T06:51:06;19.80;99.90
46283;DHT22;32017;43.700;11.820;2023-07-31T06:53:26;19.80;99.90
46283;DHT22;32017;43.700;11.820;2023-07-31T06:55:45;19.80;99.90
46283;DHT22;32017;43.700;11.820;2023-07-31T06:58:07;19.90;99.90
46283;DHT22;32017;43.700;11.820;2023-07-31T07:00:28;20.10;99.90
46283;DHT22;32017;43.700;11.820;2023-07-31T07:02:48;20.70;99.90
46283;DHT22;32017;43.700;11.820;2023-07-31T07:05:09;21.00;99.90
46283;DHT22;32017;43.700;11.820;2023-07-31T07:07:29;20.90;99.90
46283;DHT22;32017;43.700;11.820;2023-07-31T07:09:49;20.90;99.90
46283;DHT22;32017;43.700;11.820;2023-07-31T07:12:09;21.10;99.90
46283;DHT22;32017;43.700;11.820;2023-07-31T07:14:29;21.40;99.90
46283;DHT22;32017;43.700;11.820;2023-07-31T07:16:51;21.40;99.90
46283;DHT22;32017;43.700;11.820;2023-07-31T07:19:11;21.90;99.90
46283;DHT22;32017;43.700;11.820;2023-07-31T07:21:31;22.30;99.90
46283;DHT22;32017;43.700;11.820;2023-07-31T07:23:51;22.60;99.90
46283;DHT22;32017;43.700;11.820;2023-07-31T07:26:10;22.30;99.90
46283;DHT22;32017;43.700;11.820;2023-07-31T07:28:31;22.40;99.90
46283;DHT22;32017;43.700;11.820;2023-07-31T07:30:52;22.70;99.90
46283;DHT22;32017;43.700;11.820;2023-07-31T07:33:13;23.00;99.90
46283;DHT22;32017;43.700;11.820;2023-07-31T07:35:34;22.90;99.90
46283;DHT22;32017;43.700;11.820;2023-07-31T07:37:54;23.40;99.90
46283;DHT22;32017;43.700;11.820;2023-07-31T07:40:14;23.40;99.90
46283;DHT22;32017;43.700;11.820;2023-07-31T07:42:34;23.40;99.90
46283;DHT22;32017;43.700;11.820;2023-07-31T07:44:54;23.60;99.90
46283;DHT22;32017;43.700;11.820;2023-07-31T07:47:14;23.40;99.90
46283;DHT22;32017;43.700;11.820;2023-07-31T07:49:35;23.70;99.90
46283;DHT22;32017;43.700;11.820;2023-07-31T07:51:55;24.10;99.90
46283;DHT22;32017;43.700;11.820;2023-07-31T07:54:14;24.10;99.90
46283;DHT22;32017;43.700;11.820;2023-07-31T07:56:36;24.20;99.90
46283;DHT22;32017;43.700;11.820;2023-07-31T07:58:57;24.30;99.90
46283;DHT22;32017;43.700;11.820;2023-07-31T08:01:17;24.30;99.90
46283;DHT22;32017;43.700;11.820;2023-07-31T08:03:37;24.50;99.90
46283;DHT22;32017;43.700;11.820;2023-07-31T08:05:58;24.80;99.90
46283;DHT22;32017;43.700;11.820;2023-07-31T08:08:19;24.50;98.90
46283;DHT22;32017;43.700;11.820;2023-07-31T08:10:39;24.90;99.90
46283;DHT22;32017;43.700;11.820;2023-07-31T08:12:59;25.60;99.90
46283;DHT22;32017;43.700;11.820;2023-07-31T08:15:19;25.40;98.10
46283;DHT22;32017;43.700;11.820;2023-07-31T08:17:39;25.40;98.50
46283;DHT22;32017;43.700;11.820;2023-07-31T08:19:59;25.20;98.00
46283;DHT22;32017;43.700;11.820;2023-07-31T08:22:21;25.40;98.50
46283;DHT22;32017;43.700;11.820;2023-07-31T08:24:41;25.50;98.00
46283;DHT22;32017;43.700;11.820;2023-07-31T08:27:02;25.50;97.10
46283;DHT22;32017;43.700;11.820;2023-07-31T08:29:22;25.70;96.60
46283;DHT22;32017;43.700;11.820;2023-07-31T08:31:42;26.00;96.90
46283;DHT22;32017;43.700;11.820;2023-07-31T08:34:02;26.10;95.10
46283;DHT22;32017;43.700;11.820;2023-07-31T08:36:23;25.90;95.00
46283;DHT22;32017;43.700;11.820;2023-07-31T08:38:42;26.20;95.90
46283;DHT22;32017;43.700;11.820;2023-07-31T08:41:05;26.80;96.40
46283;DHT22;32017;43.700;11.820;2023-07-31T08:43:28;27.20;95.00
46283;DHT22;32017;43.700;11.820;2023-07-31T08:45:49;27.30;95.30
46283;DHT22;32017;43.700;11.820;2023-07-31T08:48:11;27.30;94.30
46283;DHT22;32017;43.700;11.820;2023-07-31T08:50:31;26.70;93.10
46283;DHT22;32017;43.700;11.820;2023-07-31T08:52:52;26.90;94.40
46283;DHT22;32017;43.700;11.820;2023-07-31T08:55:12;26.80;93.10
46283;DHT22;32017;43.700;11.820;2023-07-31T08:57:35;27.00;93.30
46283;DHT22;32017;43.700;11.820;2023-07-31T08:59:55;27.40;93.60
46283;DHT22;32017;43.700;11.820;2023-07-31T09:02:16;27.40;93.30
46283;DHT22;32017;43.700;11.820;2023-07-31T09:04:37;27.90;94.90
46283;DHT22;32017;43.700;11.820;2023-07-31T09:07:00;28.50;93.40
46283;DHT22;32017;43.700;11.820;2023-07-31T09:09:20;28.30;92.30
46283;DHT22;32017;43.700;11.820;2023-07-31T09:11:40;28.20;92.90
46283;DHT22;32017;43.700;11.820;2023-07-31T09:14:00;28.20;92.70
46283;DHT22;32017;43.700;11.820;2023-07-31T09:16:29;28.30;93.80
46283;DHT22;32017;43.700;11.820;2023-07-31T09:18:56;28.80;94.20
46283;DHT22;32017;43.700;11.820;2023-07-31T09:21:16;29.00;92.00
46283;DHT22;32017;43.700;11.820;2023-07-31T09:23:44;29.00;91.20
46283;DHT22;32017;43.700;11.820;2023-07-31T09:26:04;29.00;91.80
46283;DHT22;32017;43.700;11.820;2023-07-31T09:28:31;29.10;91.90
46283;DHT22;32017;43.700;11.820;2023-07-31T09:30:51;29.30;91.00
46283;DHT22;32017;43.700;11.820;2023-07-31T09:33:11;29.20;88.90
46283;DHT22;32017;43.700;11.820;2023-07-31T09:35:33;29.10;89.00
46283;DHT22;32017;43.700;11.820;2023-07-31T09:37:58;29.30;89.10
46283;DHT22;32017;43.700;11.820;2023-07-31T09:40:30;29.20;88.60
46283;DHT22;32017;43.700;11.820;2023-07-31T09:42:51;29.20;84.30
46283;DHT22;32017;43.700;11.820;2023-07-31T09:45:11;29.50;89.50
46283;DHT22;32017;43.700;11.820;2023-07-31T09:47:36;29.60;87.70
46283;DHT22;32017;43.700;11.820;2023-07-31T09:49:56;29.70;82.70
46283;DHT22;32017;43.700;11.820;2023-07-31T09:52:16;29.60;84.30
46283;DHT22;32017;43.700;11.820;2023-07-31T09:54:36;29.50;87.80
46283;DHT22;32017;43.700;11.820;2023-07-31T09:56:58;29.70;86.70
46283;DHT22;32017;43.700;11.820;2023-07-31T09:59:19;29.90;86.50
46283;DHT22;32017;43.700;11.820;2023-07-31T10:01:44;30.10;85.50
46283;DHT22;32017;43.700;11.820;2023-07-31T10:04:05;30.00;87.40
46283;DHT22;32017;43.700;11.820;2023-07-31T10:06:27;30.40;84.20
46283;DHT22;32017;43.700;11.820;2023-07-31T10:08:47;30.30;83.60
46283;DHT22;32017;43.700;11.820;2023-07-31T10:11:11;29.70;85.80
46283;DHT22;32017;43.700;11.820;2023-07-31T10:13:32;29.70;86.20
46283;DHT22;32017;43.700;11.820;2023-07-31T10:15:53;30.10;86.10
46283;DHT22;32017;43.700;11.820;2023-07-31T10:18:14;30.40;88.20
46283;DHT22;32017;43.700;11.820;2023-07-31T10:20:36;30.80;85.90
46283;DHT22;32017;43.700;11.820;2023-07-31T10:22:57;31.40;89.30
46283;DHT22;32017;43.700;11.820;2023-07-31T10:25:19;31.70;85.40
46283;DHT22;32017;43.700;11.820;2023-07-31T10:27:41;31.50;83.30
46283;DHT22;32017;43.700;11.820;2023-07-31T10:30:04;31.50;84.50
46283;DHT22;32017;43.700;11.820;2023-07-31T10:32:25;31.50;83.50
46283;DHT22;32017;43.700;11.820;2023-07-31T10:34:47;31.40;84.10
46283;DHT22;32017;43.700;11.820;2023-07-31T10:37:29;31.50;83.20
46283;DHT22;32017;43.700;11.820;2023-07-31T10:40:04;31.10;84.20
46283;DHT22;32017;43.700;11.820;2023-07-31T10:42:49;31.30;82.90
46283;DHT22;32017;43.700;11.820;2023-07-31T10:45:09;31.00;84.00
46283;DHT22;32017;43.700;11.820;2023-07-31T10:47:46;31.50;85.10
46283;DHT22;32017;43.700;11.820;2023-07-31T10:50:17;31.80;85.80
46283;DHT22;32017;43.700;11.820;2023-07-31T10:52:45;31.90;80.30
46283;DHT22;32017;43.700;11.820;2023-07-31T10:55:41;32.30;84.60
46283;DHT22;32017;43.700;11.820;2023-07-31T10:58:10;31.90;81.40
46283;DHT22;32017;43.700;11.820;2023-07-31T11:00:30;31.80;83.60
46283;DHT22;32017;43.700;11.820;2023-07-31T11:03:05;31.60;81.60
46283;DHT22;32017;43.700;11.820;2023-07-31T11:05:42;31.40;79.70
46283;DHT22;32017;43.700;11.820;2023-07-31T11:08:14;31.90;82.70
46283;DHT22;32017;43.700;11.820;2023-07-31T11:10:34;31.80;80.30
46283;DHT22;32017;43.700;11.820;2023-07-31T11:12:53;32.30;78.60
46283;DHT22;32017;43.700;11.820;2023-07-31T11:15:13;32.90;80.70
46283;DHT22;32017;43.700;11.820;2023-07-31T11:17:33;33.20;80.20
46283;DHT22;32017;43.700;11.820;2023-07-31T11:19:53;33.10;78.40
46283;DHT22;32017;43.700;11.820;2023-07-31T11:22:13;33.40;78.90
46283;DHT22;32017;43.700;11.820;2023-07-31T11:24:34;32.60;77.00
46283;DHT22;32017;43.700;11.820;2023-07-31T11:26:54;32.70;73.80
46283;DHT22;32017;43.700;11.820;2023-07-31T11:29:14;33.00;81.40
46283;DHT22;32017;43.700;11.820;2023-07-31T11:31:42;32.90;73.50
46283;DHT22;32017;43.700;11.820;2023-07-31T11:34:06;32.90;70.60
46283;DHT22;32017;43.700;11.820;2023-07-31T11:36:26;32.70;71.80
46283;DHT22;32017;43.700;11.820;2023-07-31T11:38:46;33.20;78.40
46283;DHT22;32017;43.700;11.820;2023-07-31T11:41:06;33.70;77.00
46283;DHT22;32017;43.700;11.820;2023-07-31T11:43:26;34.20;72.70
46283;DHT22;32017;43.700;11.820;2023-07-31T11:45:51;34.00;73.90
46283;DHT22;32017;43.700;11.820;2023-07-31T11:48:18;32.90;76.40
46283;DHT22;32017;43.700;11.820;2023-07-31T11:50:39;33.30;76.50
46283;DHT22;32017;43.700;11.820;2023-07-31T11:53:01;33.00;75.90
46283;DHT22;32017;43.700;11.820;2023-07-31T11:55:23;33.70;76.50
46283;DHT22;32017;43.700;11.820;2023-07-31T11:57:44;33.00;68.80
46283;DHT22;32017;43.700;11.820;2023-07-31T12:00:06;32.20;69.30
46283;DHT22;32017;43.700;11.820;2023-07-31T12:02:28;32.50;70.30
46283;DHT22;32017;43.700;11.820;2023-07-31T12:04:48;32.80;70.10
46283;DHT22;32017;43.700;11.820;2023-07-31T12:07:08;32.50;68.80
46283;DHT22;32017;43.700;11.820;2023-07-31T12:09:28;32.50;73.40
46283;DHT22;32017;43.700;11.820;2023-07-31T12:11:48;33.30;72.10
46283;DHT22;32017;43.700;11.820;2023-07-31T12:14:23;34.00;67.70
46283;DHT22;32017;43.700;11.820;2023-07-31T12:16:44;34.10;71.60
46283;DHT22;32017;43.700;11.820;2023-07-31T12:19:04;34.80;71.90
46283;DHT22;32017;43.700;11.820;2023-07-31T12:21:27;35.20;71.10
46283;DHT22;32017;43.700;11.820;2023-07-31T12:23:47;34.30;72.00
46283;DHT22;32017;43.700;11.820;2023-07-31T12:26:10;33.60;69.70
46283;DHT22;32017;43.700;11.820;2023-07-31T12:28:30;34.40;70.40
46283;DHT22;32017;43.700;11.820;2023-07-31T12:30:50;34.70;70.20
46283;DHT22;32017;43.700;11.820;2023-07-31T12:33:14;35.10;72.50
46283;DHT22;32017;43.700;11.820;2023-07-31T12:35:36;35.30;71.00
46283;DHT22;32017;43.700;11.820;2023-07-31T12:37:56;35.60;68.70
46283;DHT22;32017;43.700;11.820;2023-07-31T12:40:20;35.00;66.80
46283;DHT22;32017;43.700;11.820;2023-07-31T12:42:49;34.90;67.90
46283;DHT22;32017;43.700;11.820;2023-07-31T12:45:09;34.70;67.00
46283;DHT22;32017;43.700;11.820;2023-07-31T12:47:29;34.80;68.90
46283;DHT22;32017;43.700;11.820;2023-07-31T12:49:50;35.50;67.90
46283;DHT22;32017;43.700;11.820;2023-07-31T12:52:10;35.30;66.60
46283;DHT22;32017;43.700;11.820;2023-07-31T12:54:30;35.30;68.50
46283;DHT22;32017;43.700;11.820;2023-07-31T12:56:50;35.40;66.90
46283;DHT22;32017;43.700;11.820;2023-07-31T12:59:09;35.30;65.90
46283;DHT22;32017;43.700;11.820;2023-07-31T13:01:30;35.70;66.50
46283;DHT22;32017;43.700;11.820;2023-07-31T13:03:50;35.60;67.00
46283;DHT22;32017;43.700;11.820;2023-07-31T13:06:10;35.80;67.60
46283;DHT22;32017;43.700;11.820;2023-07-31T13:08:30;35.50;66.30
46283;DHT22;32017;43.700;11.820;2023-07-31T13:10:50;35.20;66.10
46283;DHT22;32017;43.700;11.820;2023-07-31T13:13:10;35.00;67.50
46283;DHT22;32017;43.700;11.820;2023-07-31T13:15:30;35.20;67.00
46283;DHT22;32017;43.700;11.820;2023-07-31T13:17:50;35.40;64.80
46283;DHT22;32017;43.700;11.820;2023-07-31T13:20:11;35.60;70.30
46283;DHT22;32017;43.700;11.820;2023-07-31T13:22:31;35.90;67.80
46283;DHT22;32017;43.700;11.820;2023-07-31T13:24:51;35.80;66.10
46283;DHT22;32017;43.700;11.820;2023-07-31T13:27:11;35.60;65.30
46283;DHT22;32017;43.700;11.820;2023-07-31T13:29:31;35.40;65.50
46283;DHT22;32017;43.700;11.820;2023-07-31T13:31:52;35.10;69.60
46283;DHT22;32017;43.700;11.820;2023-07-31T13:34:12;35.40;67.20
46283;DHT22;32017;43.700;11.820;2023-07-31T13:36:32;35.40;66.70
46283;DHT22;32017;43.700;11.820;2023-07-31T13:38:53;35.50;65.80
46283;DHT22;32017;43.700;11.820;2023-07-31T13:41:13;36.00;67.00
46283;DHT22;32017;43.700;11.820;2023-07-31T13:43:32;35.40;66.20
46283;DHT22;32017;43.700;11.820;2023-07-31T13:45:52;35.30;68.80
46283;DHT22;32017;43.700;11.820;2023-07-31T13:48:12;35.60;68.90
46283;DHT22;32017;43.700;11.820;2023-07-31T13:50:31;35.80;67.70
46283;DHT22;32017;43.700;11.820;2023-07-31T13:52:51;35.90;69.70
46283;DHT22;32017;43.700;11.820;2023-07-31T13:55:11;36.00;67.60
46283;DHT22;32017;43.700;11.820;2023-07-31T13:57:31;36.00;67.10
46283;DHT22;32017;43.700;11.820;2023-07-31T13:59:52;35.60;65.30
46283;DHT22;32017;43.700;11.820;2023-07-31T14:02:11;35.20;67.10
46283;DHT22;32017;43.700;11.820;2023-07-31T14:04:31;35.60;69.40
46283;DHT22;32017;43.700;11.820;2023-07-31T14:06:51;36.00;65.90
46283;DHT22;32017;43.700;11.820;2023-07-31T14:09:11;36.00;64.50
46283;DHT22;32017;43.700;11.820;2023-07-31T14:11:31;35.70;67.50
46283;DHT22;32017;43.700;11.820;2023-07-31T14:13:51;35.60;65.10
46283;DHT22;32017;43.700;11.820;2023-07-31T14:16:12;35.20;69.20
46283;DHT22;32017;43.700;11.820;2023-07-31T14:18:32;35.20;64.10
46283;DHT22;32017;43.700;11.820;2023-07-31T14:20:52;35.30;65.30
46283;DHT22;32017;43.700;11.820;2023-07-31T14:23:13;35.70;65.20
46283;DHT22;32017;43.700;11.820;2023-07-31T14:25:33;35.80;65.20
46283;DHT22;32017;43.700;11.820;2023-07-31T14:27:53;35.60;66.00
46283;DHT22;32017;43.700;11.820;2023-07-31T14:30:12;35.60;65.10
46283;DHT22;32017;43.700;11.820;2023-07-31T14:32:32;35.50;65.50
46283;DHT22;32017;43.700;11.820;2023-07-31T14:34:52;35.00;64.00
46283;DHT22;32017;43.700;11.820;2023-07-31T14:37:13;34.20;69.70
46283;DHT22;32017;43.700;11.820;2023-07-31T14:39:33;33.80;75.80
46283;DHT22;32017;43.700;11.820;2023-07-31T14:41:53;33.80;78.10